Rockland, Texas
Current Conditions -  °F | °C
As of 1:55 PM on Tuesday 21 Oct 2014 (Local Time) from KJAS Reporting Station
Clear Clear  
Wind Chill: 78°   Ceiling: Unl
Heat Index: 80°   Visibility: 10mi
Dew Point: 59°   Wind: 8mph
Humidity: 50%   Direction: 50°NE
Pressure: 30.06"   Gusts: NA
Location:  30.9134°N, 94.4275°W
Report Text: KJAS 211855Z AUTO 05007KT 020V090 10SM CLR 26/15 A3006 RMK AO2 T02580148
Loading
Personal Weather Stations






























Interactive Weather Map
Tropical Storm Tracking
New forecast layout! Learn more

10-Day Weather Forecast

Advertisements
Track Severe Weather on mobile